UAE822 OEDF-OMDB
Flight info
| Callsign | UAE822 |
|---|---|
| Flight time | N/A |
| Altitude | 31000 |
| Route | ROTEL N572 DAVRI P559 VUTEB |
| Aircraft | B77W/H-SDE1E2E3FGHIJ2J3J4J5M1RWXY/LB1D1 |
Departure
| Time | 2026-05-04 18:53 |
|---|---|
| Airport | King Fahd International Airport (OEDF) |
Arrival
| Time | N/A |
|---|---|
| Airport | Dubai International Airport (OMDB) |
| Time | Latitude | Longitude | Altitude | Speed | Heading |
|---|---|---|---|---|---|
| 2026-05-04 18:06 | 26.46881 | 49.79479 | 93 ft | 0 kts | 75° |
| 2026-05-04 18:36 | 26.46880 | 49.79472 | 90 ft | 4 kts | 73° |
| 2026-05-04 18:37 | 26.46871 | 49.79443 | 91 ft | 4 kts | 69° |
| 2026-05-04 18:37 | 26.46862 | 49.79419 | 93 ft | 4 kts | 45° |
| 2026-05-04 18:37 | 26.46845 | 49.79414 | 91 ft | 4 kts | 333° |
| 2026-05-04 18:37 | 26.46821 | 49.79427 | 94 ft | 3 kts | 345° |
| 2026-05-04 18:38 | 26.46814 | 49.79429 | 93 ft | 0 kts | 347° |
| 2026-05-04 18:42 | 26.46815 | 49.79429 | 93 ft | 1 kts | 347° |
| 2026-05-04 18:42 | 26.46820 | 49.79427 | 94 ft | 1 kts | 347° |
| 2026-05-04 18:42 | 26.46825 | 49.79426 | 94 ft | 1 kts | 347° |
| 2026-05-04 18:42 | 26.46837 | 49.79422 | 90 ft | 3 kts | 344° |
| 2026-05-04 18:43 | 26.46861 | 49.79413 | 94 ft | 5 kts | 337° |
| 2026-05-04 18:43 | 26.46897 | 49.79395 | 92 ft | 7 kts | 336° |
| 2026-05-04 18:43 | 26.46946 | 49.79370 | 94 ft | 9 kts | 335° |
| 2026-05-04 18:43 | 26.47007 | 49.79338 | 94 ft | 11 kts | 334° |
| 2026-05-04 18:44 | 26.47079 | 49.79298 | 94 ft | 12 kts | 334° |
| 2026-05-04 18:44 | 26.47103 | 49.79285 | 93 ft | 11 kts | 333° |
| 2026-05-04 18:44 | 26.47201 | 49.79231 | 94 ft | 11 kts | 334° |
| 2026-05-04 18:44 | 26.47272 | 49.79192 | 94 ft | 12 kts | 334° |
| 2026-05-04 18:45 | 26.47357 | 49.79153 | 93 ft | 14 kts | 342° |
| 2026-05-04 18:45 | 26.47440 | 49.79124 | 91 ft | 7 kts | 343° |
| 2026-05-04 18:45 | 26.47492 | 49.79123 | 94 ft | 8 kts | 16° |
| 2026-05-04 18:45 | 26.47535 | 49.79172 | 94 ft | 10 kts | 61° |
| 2026-05-04 18:46 | 26.47559 | 49.79246 | 94 ft | 11 kts | 72° |
| 2026-05-04 18:46 | 26.47579 | 49.79325 | 96 ft | 11 kts | 77° |
| 2026-05-04 18:46 | 26.47596 | 49.79404 | 99 ft | 11 kts | 76° |
| 2026-05-04 18:46 | 26.47614 | 49.79484 | 99 ft | 11 kts | 76° |
| 2026-05-04 18:47 | 26.47633 | 49.79570 | 102 ft | 12 kts | 76° |
| 2026-05-04 18:47 | 26.47661 | 49.79665 | 101 ft | 14 kts | 72° |
| 2026-05-04 18:47 | 26.47690 | 49.79772 | 101 ft | 15 kts | 75° |
| 2026-05-04 18:47 | 26.47720 | 49.79892 | 100 ft | 17 kts | 74° |
| 2026-05-04 18:48 | 26.47756 | 49.80036 | 94 ft | 22 kts | 74° |
| 2026-05-04 18:48 | 26.47798 | 49.80207 | 92 ft | 23 kts | 75° |
| 2026-05-04 18:48 | 26.47835 | 49.80362 | 94 ft | 20 kts | 74° |
| 2026-05-04 18:48 | 26.47873 | 49.80512 | 93 ft | 20 kts | 74° |
| 2026-05-04 18:49 | 26.47910 | 49.80659 | 94 ft | 15 kts | 74° |
| 2026-05-04 18:49 | 26.47937 | 49.80764 | 95 ft | 14 kts | 74° |
| 2026-05-04 18:49 | 26.48000 | 49.80835 | 94 ft | 15 kts | 2° |
| 2026-05-04 18:49 | 26.48105 | 49.80813 | 93 ft | 16 kts | 343° |
| 2026-05-04 18:50 | 26.48214 | 49.80778 | 93 ft | 17 kts | 345° |
| 2026-05-04 18:50 | 26.48333 | 49.80743 | 95 ft | 18 kts | 342° |
| 2026-05-04 18:50 | 26.48456 | 49.80703 | 94 ft | 17 kts | 345° |
| 2026-05-04 18:50 | 26.48575 | 49.80667 | 94 ft | 18 kts | 345° |
| 2026-05-04 18:51 | 26.48696 | 49.80630 | 93 ft | 14 kts | 345° |
| 2026-05-04 18:51 | 26.48797 | 49.80599 | 93 ft | 16 kts | 345° |
| 2026-05-04 18:51 | 26.48876 | 49.80534 | 94 ft | 13 kts | 281° |
| 2026-05-04 18:51 | 26.48851 | 49.80437 | 94 ft | 14 kts | 239° |
| 2026-05-04 18:52 | 26.48775 | 49.80399 | 96 ft | 11 kts | 169° |
| 2026-05-04 18:52 | 26.48743 | 49.80408 | 95 ft | 0 kts | 165° |
| 2026-05-04 18:52 | 26.48738 | 49.80409 | 91 ft | 7 kts | 165° |
| 2026-05-04 18:53 | 26.48474 | 49.80491 | 93 ft | 79 kts | 165° |
| 2026-05-04 18:53 | 26.47683 | 49.80736 | 91 ft | 151 kts | 164° |
| 2026-05-04 18:53 | 26.46525 | 49.81100 | 247 ft | 188 kts | 163° |
| 2026-05-04 18:53 | 26.45258 | 49.81478 | 893 ft | 189 kts | 164° |
| 2026-05-04 18:54 | 26.43972 | 49.81866 | 1514 ft | 193 kts | 161° |
| 2026-05-04 18:54 | 26.42651 | 49.82289 | 2004 ft | 205 kts | 161° |
| 2026-05-04 18:54 | 26.41713 | 49.82614 | 2140 ft | 220 kts | 153° |
| 2026-05-04 18:54 | 26.40569 | 49.83785 | 2320 ft | 236 kts | 113° |
| 2026-05-04 18:55 | 26.40366 | 49.85610 | 2660 ft | 246 kts | 74° |
| 2026-05-04 18:55 | 26.41972 | 49.89145 | 3705 ft | 266 kts | 59° |
| 2026-05-04 18:55 | 26.42894 | 49.90970 | 4406 ft | 273 kts | 59° |
| 2026-05-04 18:56 | 26.43828 | 49.92839 | 5159 ft | 277 kts | 59° |
| 2026-05-04 18:56 | 26.44763 | 49.94728 | 5928 ft | 281 kts | 59° |
| 2026-05-04 18:56 | 26.45710 | 49.96665 | 6651 ft | 286 kts | 59° |
| 2026-05-04 18:56 | 26.46662 | 49.98626 | 7353 ft | 291 kts | 59° |
| 2026-05-04 18:57 | 26.47630 | 50.00636 | 8089 ft | 295 kts | 59° |
| 2026-05-04 18:57 | 26.48606 | 50.02670 | 8809 ft | 300 kts | 59° |
| 2026-05-04 18:57 | 26.49592 | 50.04732 | 9539 ft | 304 kts | 58° |
| 2026-05-04 18:57 | 26.50595 | 50.06836 | 9953 ft | 307 kts | 58° |
| 2026-05-04 18:58 | 26.51604 | 50.08956 | 10344 ft | 310 kts | 59° |
| 2026-05-04 18:58 | 26.52619 | 50.11090 | 11143 ft | 311 kts | 59° |
| 2026-05-04 18:58 | 26.53633 | 50.13228 | 12037 ft | 312 kts | 59° |
| 2026-05-04 18:58 | 26.54651 | 50.15373 | 12975 ft | 314 kts | 59° |
| 2026-05-04 18:59 | 26.55681 | 50.17544 | 13842 ft | 318 kts | 59° |
| 2026-05-04 18:59 | 26.56718 | 50.19733 | 14642 ft | 322 kts | 60° |
| 2026-05-04 18:59 | 26.57776 | 50.21965 | 15457 ft | 326 kts | 60° |
| 2026-05-04 18:59 | 26.58845 | 50.24223 | 16255 ft | 331 kts | 60° |
| 2026-05-04 19:00 | 26.59930 | 50.26516 | 17053 ft | 337 kts | 60° |
| 2026-05-04 19:00 | 26.61032 | 50.28846 | 17846 ft | 342 kts | 61° |
| 2026-05-04 19:00 | 26.62154 | 50.31221 | 18576 ft | 348 kts | 61° |
| 2026-05-04 19:00 | 26.63296 | 50.33639 | 19253 ft | 354 kts | 61° |
| 2026-05-04 19:01 | 26.64455 | 50.36094 | 19951 ft | 360 kts | 61° |
| 2026-05-04 19:01 | 26.65630 | 50.38584 | 20643 ft | 366 kts | 60° |
| 2026-05-04 19:01 | 26.66826 | 50.41121 | 21339 ft | 371 kts | 60° |
| 2026-05-04 19:01 | 26.68040 | 50.43695 | 22028 ft | 377 kts | 60° |
| 2026-05-04 19:02 | 26.69275 | 50.46315 | 22591 ft | 389 kts | 61° |
| 2026-05-04 19:02 | 26.70447 | 50.49102 | 22729 ft | 412 kts | 67° |
| 2026-05-04 19:02 | 26.71384 | 50.52216 | 22878 ft | 433 kts | 72° |
| 2026-05-04 19:02 | 26.72248 | 50.55528 | 23023 ft | 453 kts | 73° |
| 2026-05-04 19:03 | 26.73121 | 50.58979 | 23178 ft | 471 kts | 73° |
| 2026-05-04 19:03 | 26.74024 | 50.62546 | 23474 ft | 482 kts | 73° |
| 2026-05-04 19:03 | 26.74959 | 50.66195 | 23846 ft | 490 kts | 73° |
| 2026-05-04 19:03 | 26.75912 | 50.69870 | 24334 ft | 494 kts | 73° |
| 2026-05-04 19:04 | 26.76881 | 50.73580 | 24825 ft | 498 kts | 73° |
| 2026-05-04 19:04 | 26.77858 | 50.77313 | 25291 ft | 503 kts | 73° |
| 2026-05-04 19:04 | 26.78845 | 50.81085 | 25734 ft | 508 kts | 73° |
| 2026-05-04 19:04 | 26.79841 | 50.84903 | 26159 ft | 513 kts | 73° |
| 2026-05-04 19:05 | 26.80846 | 50.88759 | 26594 ft | 518 kts | 73° |
| 2026-05-04 19:05 | 26.81591 | 50.92704 | 26927 ft | 522 kts | 85° |
| 2026-05-04 19:05 | 26.81589 | 50.96781 | 27308 ft | 525 kts | 97° |
| 2026-05-04 19:05 | 26.80913 | 51.00798 | 27750 ft | 525 kts | 109° |
| 2026-05-04 19:06 | 26.79569 | 51.04571 | 28284 ft | 521 kts | 118° |
| 2026-05-04 19:06 | 26.78016 | 51.08230 | 28939 ft | 520 kts | 118° |
| 2026-05-04 19:06 | 26.76618 | 51.11972 | 29576 ft | 522 kts | 114° |
| 2026-05-04 19:06 | 26.75382 | 51.15793 | 30140 ft | 523 kts | 112° |
| 2026-05-04 19:07 | 26.74191 | 51.19629 | 30659 ft | 523 kts | 112° |
| 2026-05-04 19:07 | 26.72991 | 51.23500 | 30791 ft | 526 kts | 112° |
| 2026-05-04 19:07 | 26.70536 | 51.31252 | 30799 ft | 536 kts | 113° |
| 2026-05-04 19:08 | 26.67977 | 51.39188 | 30795 ft | 549 kts | 113° |
| 2026-05-04 19:08 | 26.65375 | 51.47266 | 30790 ft | 553 kts | 113° |
| 2026-05-04 19:09 | 26.62780 | 51.55345 | 30776 ft | 552 kts | 113° |
| 2026-05-04 19:09 | 26.60186 | 51.63411 | 30783 ft | 551 kts | 113° |
| 2026-05-04 19:10 | 26.57584 | 51.71474 | 30778 ft | 552 kts | 113° |
| 2026-05-04 19:10 | 26.54969 | 51.79521 | 30774 ft | 551 kts | 113° |
| 2026-05-04 19:11 | 26.52378 | 51.87573 | 30772 ft | 551 kts | 113° |
| 2026-05-04 19:11 | 26.49728 | 51.95590 | 30771 ft | 550 kts | 114° |
| 2026-05-04 19:12 | 26.45722 | 52.07541 | 30770 ft | 551 kts | 114° |
| 2026-05-04 19:13 | 26.43046 | 52.15552 | 30766 ft | 551 kts | 114° |
| 2026-05-04 19:13 | 26.40363 | 52.23548 | 30767 ft | 550 kts | 114° |
| 2026-05-04 19:14 | 26.37679 | 52.31530 | 30763 ft | 549 kts | 114° |
| 2026-05-04 19:14 | 26.34988 | 52.39507 | 30766 ft | 549 kts | 114° |
| 2026-05-04 19:15 | 26.32037 | 52.47349 | 30759 ft | 548 kts | 117° |
| 2026-05-04 19:15 | 26.28974 | 52.55115 | 30759 ft | 548 kts | 116° |
| 2026-05-04 19:16 | 26.25973 | 52.62905 | 30762 ft | 547 kts | 116° |
| 2026-05-04 19:16 | 26.22988 | 52.70697 | 30760 ft | 547 kts | 116° |
| 2026-05-04 19:17 | 26.19998 | 52.78492 | 30772 ft | 547 kts | 116° |
| 2026-05-04 19:17 | 26.17012 | 52.86268 | 30756 ft | 546 kts | 116° |
| 2026-05-04 19:18 | 26.14021 | 52.94045 | 30755 ft | 546 kts | 116° |
| 2026-05-04 19:18 | 26.11026 | 53.01817 | 30775 ft | 546 kts | 116° |
| 2026-05-04 19:19 | 26.08083 | 53.09607 | 30769 ft | 547 kts | 115° |
| 2026-05-04 19:19 | 26.05231 | 53.17451 | 30754 ft | 546 kts | 115° |
| 2026-05-04 19:20 | 26.02377 | 53.25280 | 30766 ft | 546 kts | 115° |
| 2026-05-04 19:20 | 25.99498 | 53.33099 | 30767 ft | 547 kts | 115° |
| 2026-05-04 19:21 | 25.96610 | 53.40917 | 30758 ft | 546 kts | 115° |
| 2026-05-04 19:21 | 25.93725 | 53.48720 | 30763 ft | 546 kts | 115° |
| 2026-05-04 19:21 | 25.92310 | 53.52622 | 30631 ft | 543 kts | 114° |
| 2026-05-04 19:22 | 25.90981 | 53.56474 | 30129 ft | 538 kts | 113° |
| 2026-05-04 19:22 | 25.89664 | 53.60383 | 29430 ft | 533 kts | 113° |
| 2026-05-04 19:22 | 25.88385 | 53.64175 | 28766 ft | 527 kts | 113° |
| 2026-05-04 19:22 | 25.87073 | 53.68015 | 28132 ft | 521 kts | 113° |
| 2026-05-04 19:23 | 25.85785 | 53.71747 | 27553 ft | 514 kts | 113° |
| 2026-05-04 19:23 | 25.84526 | 53.75370 | 26994 ft | 508 kts | 113° |
| 2026-05-04 19:23 | 25.83234 | 53.79069 | 26397 ft | 503 kts | 113° |
| 2026-05-04 19:23 | 25.81980 | 53.82657 | 25979 ft | 494 kts | 113° |
| 2026-05-04 19:24 | 25.80751 | 53.86179 | 25569 ft | 486 kts | 112° |
| 2026-05-04 19:24 | 25.79702 | 53.89726 | 25085 ft | 481 kts | 105° |
| 2026-05-04 19:24 | 25.78984 | 53.93338 | 24583 ft | 477 kts | 102° |
| 2026-05-04 19:24 | 25.78336 | 53.96930 | 24062 ft | 473 kts | 102° |
| 2026-05-04 19:25 | 25.77701 | 54.00490 | 23578 ft | 469 kts | 102° |
| 2026-05-04 19:25 | 25.77063 | 54.04028 | 23073 ft | 464 kts | 102° |
| 2026-05-04 19:25 | 25.76422 | 54.07520 | 22486 ft | 460 kts | 102° |
| 2026-05-04 19:25 | 25.75777 | 54.10982 | 21898 ft | 457 kts | 102° |
| 2026-05-04 19:26 | 25.75129 | 54.14418 | 21327 ft | 454 kts | 102° |
| 2026-05-04 19:26 | 25.74483 | 54.17827 | 20795 ft | 450 kts | 102° |
| 2026-05-04 19:26 | 25.73842 | 54.21199 | 20279 ft | 446 kts | 102° |
| 2026-05-04 19:26 | 25.73202 | 54.24556 | 19763 ft | 442 kts | 102° |
| 2026-05-04 19:27 | 25.72569 | 54.27883 | 19248 ft | 439 kts | 102° |
| 2026-05-04 19:27 | 25.71940 | 54.31180 | 18742 ft | 436 kts | 102° |
| 2026-05-04 19:27 | 25.71315 | 54.34455 | 18257 ft | 433 kts | 102° |
| 2026-05-04 19:27 | 25.70694 | 54.37706 | 17739 ft | 430 kts | 102° |
| 2026-05-04 19:28 | 25.70075 | 54.40940 | 17235 ft | 425 kts | 102° |
| 2026-05-04 19:28 | 25.69472 | 54.44085 | 16760 ft | 421 kts | 102° |
| 2026-05-04 19:28 | 25.68867 | 54.47241 | 16280 ft | 417 kts | 102° |
| 2026-05-04 19:28 | 25.68259 | 54.50408 | 15800 ft | 413 kts | 102° |
| 2026-05-04 19:29 | 25.67664 | 54.53503 | 15329 ft | 409 kts | 102° |
| 2026-05-04 19:29 | 25.67072 | 54.56580 | 14853 ft | 405 kts | 101° |
| 2026-05-04 19:29 | 25.66486 | 54.59623 | 14376 ft | 402 kts | 101° |
| 2026-05-04 19:29 | 25.65910 | 54.62604 | 13939 ft | 399 kts | 101° |
| 2026-05-04 19:30 | 25.65334 | 54.65588 | 13491 ft | 395 kts | 101° |
| 2026-05-04 19:30 | 25.64760 | 54.68558 | 13004 ft | 391 kts | 101° |
| 2026-05-04 19:30 | 25.64185 | 54.71529 | 12549 ft | 387 kts | 101° |
| 2026-05-04 19:30 | 25.63630 | 54.74395 | 12146 ft | 383 kts | 101° |
| 2026-05-04 19:31 | 25.63072 | 54.77276 | 12055 ft | 382 kts | 101° |
| 2026-05-04 19:31 | 25.62513 | 54.80160 | 12009 ft | 382 kts | 101° |
| 2026-05-04 19:31 | 25.61952 | 54.83047 | 11972 ft | 383 kts | 101° |
| 2026-05-04 19:31 | 25.61388 | 54.85927 | 11979 ft | 383 kts | 101° |
| 2026-05-04 19:32 | 25.60590 | 54.88739 | 11978 ft | 384 kts | 110° |
| 2026-05-04 19:32 | 25.59503 | 54.91445 | 11980 ft | 385 kts | 114° |
| 2026-05-04 19:32 | 25.58350 | 54.94121 | 11975 ft | 386 kts | 114° |
| 2026-05-04 19:32 | 25.57219 | 54.96817 | 11983 ft | 385 kts | 113° |
| 2026-05-04 19:33 | 25.56135 | 54.99513 | 11970 ft | 384 kts | 112° |
| 2026-05-04 19:33 | 25.55064 | 55.02228 | 11672 ft | 381 kts | 112° |
| 2026-05-04 19:33 | 25.53952 | 55.04876 | 11253 ft | 379 kts | 116° |
| 2026-05-04 19:33 | 25.52661 | 55.07408 | 10777 ft | 377 kts | 119° |
| 2026-05-04 19:34 | 25.51316 | 55.09889 | 10312 ft | 374 kts | 119° |
| 2026-05-04 19:34 | 25.49985 | 55.12355 | 9860 ft | 372 kts | 118° |
| 2026-05-04 19:34 | 25.48842 | 55.14522 | 9462 ft | 369 kts | 118° |
| 2026-05-04 19:34 | 25.47562 | 55.16977 | 8982 ft | 367 kts | 118° |
| 2026-05-04 19:35 | 25.46312 | 55.19378 | 8785 ft | 349 kts | 118° |
| 2026-05-04 19:35 | 25.44952 | 55.21494 | 8595 ft | 326 kts | 128° |